sensor_id;sensor_type;location;lat;lon;timestamp;P1;durP1;ratioP1;P2;durP2;ratioP2
40601;SDS011;26310;50.278;19.032;2022-09-29T04:34:49;9.10;;;5.47;;
40601;SDS011;26310;50.278;19.032;2022-09-29T04:39:52;9.87;;;5.73;;
40601;SDS011;26310;50.278;19.032;2022-09-29T04:44:55;8.77;;;5.53;;
40601;SDS011;26310;50.278;19.032;2022-09-29T04:49:58;9.40;;;5.40;;
40601;SDS011;26310;50.278;19.032;2022-09-29T04:55:01;8.33;;;5.27;;
40601;SDS011;26310;50.278;19.032;2022-09-29T05:00:05;6.13;;;4.60;;
40601;SDS011;26310;50.278;19.032;2022-09-29T05:05:09;8.13;;;5.07;;
40601;SDS011;26310;50.278;19.032;2022-09-29T05:10:13;6.43;;;4.90;;
40601;SDS011;26310;50.278;19.032;2022-09-29T05:15:16;10.67;;;4.37;;
40601;SDS011;26310;50.278;19.032;2022-09-29T05:20:25;8.37;;;4.90;;
40601;SDS011;26310;50.278;19.032;2022-09-29T05:25:38;8.40;;;5.17;;
40601;SDS011;26310;50.278;19.032;2022-09-29T05:30:41;8.63;;;5.27;;
40601;SDS011;26310;50.278;19.032;2022-09-29T05:35:44;7.73;;;5.50;;
40601;SDS011;26310;50.278;19.032;2022-09-29T05:40:47;8.80;;;5.77;;
40601;SDS011;26310;50.278;19.032;2022-09-29T05:45:58;7.93;;;5.10;;
40601;SDS011;26310;50.278;19.032;2022-09-29T05:51:10;9.13;;;5.53;;
40601;SDS011;26310;50.278;19.032;2022-09-29T05:56:15;12.97;;;6.73;;
40601;SDS011;26310;50.278;19.032;2022-09-29T06:01:22;7.77;;;5.90;;
40601;SDS011;26310;50.278;19.032;2022-09-29T06:06:27;10.90;;;7.07;;
40601;SDS011;26310;50.278;19.032;2022-09-29T06:11:30;10.47;;;6.87;;
40601;SDS011;26310;50.278;19.032;2022-09-29T06:16:33;9.73;;;6.80;;
40601;SDS011;26310;50.278;19.032;2022-09-29T06:21:36;11.00;;;6.23;;
40601;SDS011;26310;50.278;19.032;2022-09-29T06:26:40;11.40;;;7.67;;
40601;SDS011;26310;50.278;19.032;2022-09-29T06:31:42;9.47;;;6.80;;
40601;SDS011;26310;50.278;19.032;2022-09-29T06:36:45;11.67;;;7.13;;
40601;SDS011;26310;50.278;19.032;2022-09-29T06:42:20;14.23;;;9.43;;
40601;SDS011;26310;50.278;19.032;2022-09-29T06:47:23;13.27;;;9.33;;
40601;SDS011;26310;50.278;19.032;2022-09-29T06:52:26;15.40;;;11.13;;
40601;SDS011;26310;50.278;19.032;2022-09-29T06:57:30;18.00;;;11.40;;
40601;SDS011;26310;50.278;19.032;2022-09-29T07:02:33;15.97;;;10.60;;
40601;SDS011;26310;50.278;19.032;2022-09-29T07:07:36;21.67;;;12.87;;
40601;SDS011;26310;50.278;19.032;2022-09-29T07:12:39;18.03;;;10.73;;
40601;SDS011;26310;50.278;19.032;2022-09-29T07:17:45;15.77;;;11.10;;
40601;SDS011;26310;50.278;19.032;2022-09-29T07:22:51;17.43;;;10.70;;
40601;SDS011;26310;50.278;19.032;2022-09-29T07:27:54;14.63;;;9.97;;
40601;SDS011;26310;50.278;19.032;2022-09-29T07:32:57;14.13;;;9.70;;
40601;SDS011;26310;50.278;19.032;2022-09-29T07:38:03;17.83;;;9.93;;
40601;SDS011;26310;50.278;19.032;2022-09-29T07:43:06;17.27;;;9.60;;
40601;SDS011;26310;50.278;19.032;2022-09-29T07:48:09;15.77;;;9.47;;
40601;SDS011;26310;50.278;19.032;2022-09-29T07:53:11;15.50;;;10.00;;
40601;SDS011;26310;50.278;19.032;2022-09-29T07:58:14;15.60;;;9.93;;
40601;SDS011;26310;50.278;19.032;2022-09-29T08:03:17;17.93;;;11.90;;
40601;SDS011;26310;50.278;19.032;2022-09-29T08:08:19;22.10;;;10.20;;
40601;SDS011;26310;50.278;19.032;2022-09-29T08:13:22;15.67;;;9.33;;
40601;SDS011;26310;50.278;19.032;2022-09-29T08:18:26;15.43;;;9.10;;
40601;SDS011;26310;50.278;19.032;2022-09-29T08:23:29;14.53;;;8.97;;
40601;SDS011;26310;50.278;19.032;2022-09-29T08:28:36;11.37;;;8.87;;
40601;SDS011;26310;50.278;19.032;2022-09-29T08:33:39;12.97;;;8.10;;
40601;SDS011;26310;50.278;19.032;2022-09-29T08:38:46;12.53;;;7.37;;
40601;SDS011;26310;50.278;19.032;2022-09-29T08:43:51;9.17;;;6.53;;
40601;SDS011;26310;50.278;19.032;2022-09-29T08:48:59;8.93;;;6.00;;
40601;SDS011;26310;50.278;19.032;2022-09-29T08:54:07;11.30;;;7.60;;
40601;SDS011;26310;50.278;19.032;2022-09-29T08:59:20;16.87;;;9.93;;
40601;SDS011;26310;50.278;19.032;2022-09-29T09:04:45;9.80;;;6.53;;
40601;SDS011;26310;50.278;19.032;2022-09-29T09:10:13;7.03;;;5.20;;
40601;SDS011;26310;50.278;19.032;2022-09-29T09:15:40;11.70;;;7.63;;
40601;SDS011;26310;50.278;19.032;2022-09-29T09:21:35;7.07;;;4.77;;
40601;SDS011;26310;50.278;19.032;2022-09-29T09:26:43;6.33;;;4.60;;
40601;SDS011;26310;50.278;19.032;2022-09-29T09:31:57;4.70;;;3.73;;
40601;SDS011;26310;50.278;19.032;2022-09-29T09:37:08;5.87;;;4.23;;
40601;SDS011;26310;50.278;19.032;2022-09-29T09:42:33;4.10;;;3.37;;
40601;SDS011;26310;50.278;19.032;2022-09-29T09:47:41;5.33;;;2.97;;
40601;SDS011;26310;50.278;19.032;2022-09-29T10:04:04;3.37;;;2.43;;
40601;SDS011;26310;50.278;19.032;2022-09-29T10:09:13;4.20;;;2.90;;
40601;SDS011;26310;50.278;19.032;2022-09-29T10:14:21;4.80;;;3.00;;
40601;SDS011;26310;50.278;19.032;2022-09-29T10:24:53;3.93;;;2.97;;
40601;SDS011;26310;50.278;19.032;2022-09-29T10:30:20;5.33;;;3.17;;
40601;SDS011;26310;50.278;19.032;2022-09-29T10:35:26;4.40;;;3.43;;
40601;SDS011;26310;50.278;19.032;2022-09-29T10:40:33;4.30;;;3.10;;
40601;SDS011;26310;50.278;19.032;2022-09-29T10:45:44;5.27;;;3.00;;
40601;SDS011;26310;50.278;19.032;2022-09-29T10:50:50;3.50;;;2.70;;
40601;SDS011;26310;50.278;19.032;2022-09-29T10:55:55;5.97;;;2.70;;
40601;SDS011;26310;50.278;19.032;2022-09-29T11:01:06;6.47;;;3.10;;
40601;SDS011;26310;50.278;19.032;2022-09-29T11:06:11;6.27;;;3.00;;
40601;SDS011;26310;50.278;19.032;2022-09-29T11:16:52;3.70;;;2.70;;
40601;SDS011;26310;50.278;19.032;2022-09-29T11:22:14;4.30;;;2.80;;
40601;SDS011;26310;50.278;19.032;2022-09-29T11:27:43;3.93;;;2.60;;
40601;SDS011;26310;50.278;19.032;2022-09-29T11:33:23;5.80;;;2.70;;
40601;SDS011;26310;50.278;19.032;2022-09-29T11:38:43;3.60;;;2.53;;
40601;SDS011;26310;50.278;19.032;2022-09-29T11:43:55;3.10;;;2.30;;
40601;SDS011;26310;50.278;19.032;2022-09-29T12:10:28;6.13;;;2.70;;
40601;SDS011;26310;50.278;19.032;2022-09-29T12:15:54;4.23;;;2.60;;
40601;SDS011;26310;50.278;19.032;2022-09-29T12:20:59;5.03;;;2.70;;
40601;SDS011;26310;50.278;19.032;2022-09-29T12:26:07;4.73;;;3.20;;
40601;SDS011;26310;50.278;19.032;2022-09-29T12:31:29;4.83;;;3.77;;
40601;SDS011;26310;50.278;19.032;2022-09-29T12:52:44;7.07;;;3.37;;
40601;SDS011;26310;50.278;19.032;2022-09-29T12:58:12;6.00;;;3.17;;
40601;SDS011;26310;50.278;19.032;2022-09-29T13:09:03;4.73;;;3.30;;
40601;SDS011;26310;50.278;19.032;2022-09-29T13:14:30;5.27;;;3.00;;
40601;SDS011;26310;50.278;19.032;2022-09-29T13:25:40;5.13;;;2.90;;
40601;SDS011;26310;50.278;19.032;2022-09-29T13:30:45;3.27;;;2.63;;
40601;SDS011;26310;50.278;19.032;2022-09-29T13:35:48;5.23;;;2.90;;
40601;SDS011;26310;50.278;19.032;2022-09-29T13:51:39;6.37;;;2.70;;
40601;SDS011;26310;50.278;19.032;2022-09-29T13:56:46;6.23;;;2.70;;
40601;SDS011;26310;50.278;19.032;2022-09-29T14:01:50;6.27;;;2.87;;
40601;SDS011;26310;50.278;19.032;2022-09-29T14:06:53;6.80;;;3.27;;
40601;SDS011;26310;50.278;19.032;2022-09-29T14:12:00;7.10;;;3.00;;
40601;SDS011;26310;50.278;19.032;2022-09-29T14:17:10;4.17;;;2.57;;
40601;SDS011;26310;50.278;19.032;2022-09-29T14:37:59;4.10;;;2.80;;
40601;SDS011;26310;50.278;19.032;2022-09-29T14:43:15;5.80;;;2.73;;
40601;SDS011;26310;50.278;19.032;2022-09-29T14:48:21;5.63;;;2.50;;
40601;SDS011;26310;50.278;19.032;2022-09-29T15:04:40;3.87;;;2.60;;
40601;SDS011;26310;50.278;19.032;2022-09-29T15:09:44;4.27;;;2.67;;
40601;SDS011;26310;50.278;19.032;2022-09-29T15:14:48;4.80;;;3.00;;
40601;SDS011;26310;50.278;19.032;2022-09-29T15:30:38;13.07;;;7.40;;
40601;SDS011;26310;50.278;19.032;2022-09-29T15:35:41;22.83;;;12.80;;
40601;SDS011;26310;50.278;19.032;2022-09-29T15:40:55;7.87;;;5.63;;
40601;SDS011;26310;50.278;19.032;2022-09-29T15:46:11;7.17;;;4.87;;
40601;SDS011;26310;50.278;19.032;2022-09-29T15:51:22;6.20;;;3.97;;
40601;SDS011;26310;50.278;19.032;2022-09-29T15:56:25;7.07;;;4.40;;
40601;SDS011;26310;50.278;19.032;2022-09-29T16:01:32;9.63;;;5.73;;
40601;SDS011;26310;50.278;19.032;2022-09-29T16:06:35;8.50;;;5.90;;
40601;SDS011;26310;50.278;19.032;2022-09-29T16:11:39;9.90;;;6.20;;
40601;SDS011;26310;50.278;19.032;2022-09-29T16:16:43;12.30;;;6.50;;
40601;SDS011;26310;50.278;19.032;2022-09-29T16:21:51;14.47;;;7.87;;
40601;SDS011;26310;50.278;19.032;2022-09-29T16:27:04;11.37;;;6.63;;
40601;SDS011;26310;50.278;19.032;2022-09-29T16:37:42;8.27;;;5.00;;
40601;SDS011;26310;50.278;19.032;2022-09-29T16:42:48;9.57;;;5.70;;
40601;SDS011;26310;50.278;19.032;2022-09-29T16:47:53;11.57;;;5.80;;
40601;SDS011;26310;50.278;19.032;2022-09-29T16:52:56;14.37;;;6.50;;
40601;SDS011;26310;50.278;19.032;2022-09-29T16:57:59;13.67;;;6.63;;
40601;SDS011;26310;50.278;19.032;2022-09-29T17:03:07;10.40;;;6.47;;
40601;SDS011;26310;50.278;19.032;2022-09-29T17:08:14;12.60;;;7.00;;
40601;SDS011;26310;50.278;19.032;2022-09-29T17:13:25;12.57;;;7.80;;
40601;SDS011;26310;50.278;19.032;2022-09-29T17:18:33;14.83;;;7.83;;
40601;SDS011;26310;50.278;19.032;2022-09-29T17:23:35;12.47;;;7.47;;
40601;SDS011;26310;50.278;19.032;2022-09-29T17:28:38;14.10;;;7.93;;
40601;SDS011;26310;50.278;19.032;2022-09-29T17:33:41;16.67;;;7.97;;
40601;SDS011;26310;50.278;19.032;2022-09-29T17:38:44;15.33;;;8.23;;
40601;SDS011;26310;50.278;19.032;2022-09-29T17:43:49;15.17;;;8.60;;
40601;SDS011;26310;50.278;19.032;2022-09-29T17:48:52;15.73;;;8.60;;
40601;SDS011;26310;50.278;19.032;2022-09-29T17:53:54;17.63;;;8.83;;
40601;SDS011;26310;50.278;19.032;2022-09-29T17:58:58;16.17;;;9.57;;
40601;SDS011;26310;50.278;19.032;2022-09-29T18:04:04;19.20;;;10.43;;
40601;SDS011;26310;50.278;19.032;2022-09-29T18:09:13;25.53;;;13.33;;
40601;SDS011;26310;50.278;19.032;2022-09-29T18:14:17;29.47;;;15.43;;
40601;SDS011;26310;50.278;19.032;2022-09-29T18:19:19;24.87;;;15.37;;
40601;SDS011;26310;50.278;19.032;2022-09-29T18:24:22;25.33;;;15.67;;
40601;SDS011;26310;50.278;19.032;2022-09-29T18:29:25;20.90;;;13.60;;
40601;SDS011;26310;50.278;19.032;2022-09-29T18:34:28;24.37;;;12.23;;
40601;SDS011;26310;50.278;19.032;2022-09-29T18:39:35;21.40;;;12.23;;
40601;SDS011;26310;50.278;19.032;2022-09-29T18:44:38;23.77;;;13.87;;
40601;SDS011;26310;50.278;19.032;2022-09-29T18:49:41;18.50;;;12.57;;
40601;SDS011;26310;50.278;19.032;2022-09-29T18:54:44;18.30;;;12.27;;
40601;SDS011;26310;50.278;19.032;2022-09-29T18:59:47;16.43;;;11.47;;
40601;SDS011;26310;50.278;19.032;2022-09-29T19:04:52;23.47;;;14.67;;
40601;SDS011;26310;50.278;19.032;2022-09-29T19:09:54;21.33;;;13.67;;
40601;SDS011;26310;50.278;19.032;2022-09-29T19:14:57;23.50;;;13.60;;
40601;SDS011;26310;50.278;19.032;2022-09-29T19:20:01;19.10;;;11.97;;
40601;SDS011;26310;50.278;19.032;2022-09-29T19:25:05;20.07;;;12.23;;
40601;SDS011;26310;50.278;19.032;2022-09-29T19:30:12;18.93;;;11.00;;
40601;SDS011;26310;50.278;19.032;2022-09-29T19:35:17;20.53;;;11.03;;
40601;SDS011;26310;50.278;19.032;2022-09-29T19:40:23;19.60;;;10.67;;
40601;SDS011;26310;50.278;19.032;2022-09-29T19:45:33;20.57;;;11.80;;
40601;SDS011;26310;50.278;19.032;2022-09-29T19:50:38;18.83;;;12.57;;
40601;SDS011;26310;50.278;19.032;2022-09-29T19:55:59;23.17;;;12.40;;
40601;SDS011;26310;50.278;19.032;2022-09-29T20:01:04;23.10;;;11.63;;
40601;SDS011;26310;50.278;19.032;2022-09-29T20:06:07;17.90;;;11.80;;
40601;SDS011;26310;50.278;19.032;2022-09-29T20:11:10;20.40;;;11.63;;
40601;SDS011;26310;50.278;19.032;2022-09-29T20:16:14;24.80;;;13.87;;
40601;SDS011;26310;50.278;19.032;2022-09-29T20:21:18;23.90;;;14.27;;
40601;SDS011;26310;50.278;19.032;2022-09-29T20:26:20;24.97;;;15.00;;
40601;SDS011;26310;50.278;19.032;2022-09-29T20:31:25;24.20;;;15.07;;
40601;SDS011;26310;50.278;19.032;2022-09-29T20:36:30;23.77;;;14.93;;
40601;SDS011;26310;50.278;19.032;2022-09-29T20:41:33;25.50;;;14.77;;
40601;SDS011;26310;50.278;19.032;2022-09-29T20:46:36;23.87;;;14.53;;
40601;SDS011;26310;50.278;19.032;2022-09-29T20:51:39;19.60;;;13.47;;
40601;SDS011;26310;50.278;19.032;2022-09-29T20:56:42;27.80;;;13.57;;
40601;SDS011;26310;50.278;19.032;2022-09-29T21:01:45;24.20;;;14.00;;
40601;SDS011;26310;50.278;19.032;2022-09-29T21:06:50;24.83;;;13.33;;
40601;SDS011;26310;50.278;19.032;2022-09-29T21:11:53;22.47;;;13.70;;
40601;SDS011;26310;50.278;19.032;2022-09-29T21:16:56;25.03;;;14.27;;
40601;SDS011;26310;50.278;19.032;2022-09-29T21:21:59;27.33;;;14.90;;
40601;SDS011;26310;50.278;19.032;2022-09-29T21:27:02;23.63;;;14.60;;
40601;SDS011;26310;50.278;19.032;2022-09-29T21:32:06;20.43;;;13.73;;
40601;SDS011;26310;50.278;19.032;2022-09-29T21:37:09;24.20;;;14.57;;
40601;SDS011;26310;50.278;19.032;2022-09-29T21:42:11;28.60;;;14.43;;
40601;SDS011;26310;50.278;19.032;2022-09-29T21:47:14;25.47;;;14.83;;
40601;SDS011;26310;50.278;19.032;2022-09-29T21:52:17;24.70;;;15.03;;
40601;SDS011;26310;50.278;19.032;2022-09-29T21:57:20;24.87;;;14.17;;
40601;SDS011;26310;50.278;19.032;2022-09-29T22:02:23;23.03;;;14.10;;
40601;SDS011;26310;50.278;19.032;2022-09-29T22:07:26;22.40;;;12.57;;
40601;SDS011;26310;50.278;19.032;2022-09-29T22:12:28;26.07;;;13.33;;
40601;SDS011;26310;50.278;19.032;2022-09-29T22:17:31;27.10;;;14.57;;
40601;SDS011;26310;50.278;19.032;2022-09-29T22:22:35;23.07;;;13.20;;
40601;SDS011;26310;50.278;19.032;2022-09-29T22:27:37;25.40;;;13.87;;
40601;SDS011;26310;50.278;19.032;2022-09-29T22:32:40;21.73;;;13.83;;
40601;SDS011;26310;50.278;19.032;2022-09-29T22:37:43;26.70;;;14.87;;
40601;SDS011;26310;50.278;19.032;2022-09-29T22:42:46;25.07;;;13.73;;
40601;SDS011;26310;50.278;19.032;2022-09-29T22:47:51;26.77;;;14.10;;
40601;SDS011;26310;50.278;19.032;2022-09-29T22:52:54;26.67;;;14.83;;
40601;SDS011;26310;50.278;19.032;2022-09-29T22:57:57;30.50;;;15.93;;
40601;SDS011;26310;50.278;19.032;2022-09-29T23:03:00;34.13;;;15.40;;
40601;SDS011;26310;50.278;19.032;2022-09-29T23:08:03;22.27;;;13.53;;
40601;SDS011;26310;50.278;19.032;2022-09-29T23:13:06;31.03;;;15.70;;
40601;SDS011;26310;50.278;19.032;2022-09-29T23:18:09;24.07;;;13.83;;
40601;SDS011;26310;50.278;19.032;2022-09-29T23:23:12;24.80;;;13.13;;
40601;SDS011;26310;50.278;19.032;2022-09-29T23:28:14;22.27;;;13.27;;
